Moncks Corner, South Carolina
Current Conditions -  °F | °C
As of 5:35 PM on Saturday 25 Oct 2014 (Local Time) from KMKS Reporting Station
Clear Clear  
Wind Chill: 72°   Ceiling: Unl
Heat Index: 72°   Visibility: 10mi
Dew Point: 52°   Wind: 0mph
Humidity: 50%   Direction: NA
Pressure: 29.94"   Gusts: NA
Location:  33.2°N, 80.01°W
Report Text: KMKS 252135Z AUTO 00000KT 10SM CLR 22/11 A2994 RMK AO2
Loading
Personal Weather Stations






























Interactive Weather Map
Tropical Storm Tracking
New forecast layout! Learn more

10-Day Weather Forecast

Advertisements
Track Severe Weather on mobile